Time;durP1;ratioP1;P1;durP2;ratioP2;P2;SDS_P1;SDS_P2;PMS_P1;PMS_P2;Temp;Humidity;BMP_temperature;BMP_pressure;BME280_temperature;BME280_humidity;BME280_pressure;Samples;Min_cycle;Max_cycle;Signal;HPM_P1;HPM_P2
2020/12/26 00:01:16;;;;;;;5.92;3.12;;;;;;;1.54;73.47;99140.49;1656744;86;21185;-60
2020/12/26 00:03:46;;;;;;;9.00;5.20;;;;;;;1.45;73.51;99137.30;1699873;82;21541;-61
2020/12/26 00:06:20;;;;;;;11.83;5.97;;;;;;;1.38;73.70;99139.25;1706524;82;21161;-60
2020/12/26 00:08:48;;;;;;;9.10;4.45;;;;;;;1.33;73.81;99143.16;1657588;86;21720;-62
2020/12/26 00:11:19;;;;;;;7.50;3.02;;;;;;;1.31;73.64;99151.93;1701314;82;21388;-62
2020/12/26 00:13:47;;;;;;;4.75;1.98;;;;;;;1.28;73.71;99150.22;1692668;83;21169;-62
2020/12/26 00:16:14;;;;;;;5.37;2.25;;;;;;;1.40;73.43;99148.42;1659690;85;21183;-61
2020/12/26 00:18:42;;;;;;;4.40;2.17;;;;;;;1.40;73.26;99146.57;1694251;83;21370;-62
2020/12/26 00:21:14;;;;;;;4.92;2.10;;;;;;;1.32;73.49;99160.28;1705447;83;21129;-62
2020/12/26 00:23:42;;;;;;;4.15;1.60;;;;;;;1.26;73.80;99168.41;1656556;86;21174;-61
2020/12/26 00:26:12;;;;;;;4.47;1.90;;;;;;;1.23;73.92;99172.38;1693551;83;21129;-61
2020/12/26 00:28:40;;;;;;;3.83;1.80;;;;;;;1.26;73.83;99168.41;1692506;85;21385;-62
2020/12/26 00:31:13;;;;;;;4.78;1.72;;;;;;;1.24;74.00;99169.97;1694470;83;21292;-62
2020/12/26 00:33:41;;;;;;;4.35;1.87;;;;;;;1.35;73.83;99173.23;1693546;83;21313;-62
2020/12/26 00:36:09;;;;;;;4.15;1.75;;;;;;;1.37;73.84;99175.70;1657286;86;21195;-62
2020/12/26 00:38:37;;;;;;;3.58;1.50;;;;;;;1.28;74.12;99171.16;1720550;83;21141;-61
2020/12/26 00:41:05;;;;;;;3.22;1.60;;;;;;;1.22;74.41;99168.56;1696031;83;21698;-62
2020/12/26 00:43:34;;;;;;;3.27;1.72;;;;;;;1.18;74.64;99168.71;1656969;86;21202;-62
2020/12/26 00:46:01;;;;;;;3.15;1.32;;;;;;;1.26;74.37;99165.22;1698696;83;21152;-61
2020/12/26 00:48:29;;;;;;;3.50;1.27;;;;;;;1.28;74.50;99167.66;1722708;83;21177;-62
2020/12/26 00:50:57;;;;;;;3.40;1.57;;;;;;;1.22;74.56;99169.91;1656703;86;21153;-62
2020/12/26 00:53:26;;;;;;;4.20;1.82;;;;;;;1.17;74.75;99169.78;1705378;83;21332;-62
2020/12/26 00:55:54;;;;;;;5.92;2.70;;;;;;;1.25;74.72;99170.79;1697110;82;21568;-62
2020/12/26 00:58:22;;;;;;;5.42;2.40;;;;;;;1.33;74.32;99169.97;1656801;86;21182;-62
2020/12/26 01:00:50;;;;;;;5.22;3.40;;;;;;;1.31;74.42;99169.91;1698616;83;21184;-62
2020/12/26 01:03:23;;;;;;;5.47;3.17;;;;;;;1.24;74.50;99176.67;1692667;83;21149;-63
2020/12/26 01:05:51;;;;;;;5.55;3.30;;;;;;;1.23;74.43;99180.42;1657662;86;21584;-61
2020/12/26 01:08:19;;;;;;;3.77;2.20;;;;;;;1.36;74.08;99174.05;1722697;83;21176;-62
2020/12/26 01:10:47;;;;;;;4.08;2.10;;;;;;;1.39;73.71;99179.78;1715979;83;21169;-62
2020/12/26 01:13:17;;;;;;;3.45;1.65;;;;;;;1.34;73.67;99174.81;1698821;83;21133;-62
2020/12/26 01:15:45;;;;;;;2.75;1.35;;;;;;;1.30;73.55;99177.65;1681643;83;21176;-62
2020/12/26 01:18:14;;;;;;;2.50;1.20;;;;;;;1.25;73.54;99174.30;1722800;83;21584;-62
2020/12/26 01:20:43;;;;;;;2.65;1.12;;;;;;;1.28;73.14;99175.18;1720453;83;21171;-62
2020/12/26 01:23:11;;;;;;;2.10;1.10;;;;;;;1.22;72.67;99173.41;1706439;83;21146;-62
2020/12/26 01:25:39;;;;;;;1.87;0.98;;;;;;;1.26;72.74;99175.94;1656620;86;21629;-62
2020/12/26 01:28:07;;;;;;;2.60;1.02;;;;;;;1.22;72.54;99186.81;1692418;85;21181;-62
2020/12/26 01:30:35;;;;;;;2.83;1.30;;;;;;;1.28;72.51;99184.56;1657216;86;21355;-62
2020/12/26 01:33:03;;;;;;;2.25;1.17;;;;;;;1.32;72.33;99179.05;1722612;83;21140;-62
2020/12/26 01:35:31;;;;;;;2.95;1.20;;;;;;;1.27;72.22;99174.91;1721020;83;21129;-62
2020/12/26 01:37:59;;;;;;;3.95;1.40;;;;;;;1.19;72.33;99171.19;1657519;86;21596;-63
2020/12/26 01:40:27;;;;;;;3.05;1.47;;;;;;;1.17;72.43;99170.57;1717537;83;21192;-62
2020/12/26 01:42:55;;;;;;;2.17;1.15;;;;;;;1.26;72.17;99165.22;1656748;86;21308;-62
2020/12/26 01:45:23;;;;;;;3.72;1.50;;;;;;;1.25;72.17;99174.81;1693464;83;21202;-61
2020/12/26 01:47:50;;;;;;;3.27;1.25;;;;;;;1.17;72.45;99171.12;1694628;83;21632;-60
2020/12/26 01:50:18;;;;;;;3.75;1.60;;;;;;;1.12;72.66;99171.78;1657566;86;21235;-61
2020/12/26 01:52:47;;;;;;;4.53;1.85;;;;;;;1.10;72.80;99172.51;1714535;83;21592;-61
2020/12/26 01:55:15;;;;;;;4.72;1.80;;;;;;;1.07;72.96;99178.33;1722763;83;21181;-61
2020/12/26 01:57:52;;;;;;;5.35;1.98;;;;;;;1.11;72.88;99178.70;1705163;81;21150;-61
2020/12/26 02:00:20;;;;;;;6.15;2.22;;;;;;;1.09;72.93;99174.91;1701695;84;21325;-61
2020/12/26 02:02:50;;;;;;;5.03;2.42;;;;;;;1.23;72.38;99183.09;1688721;84;21186;-60
2020/12/26 02:05:20;;;;;;;3.95;1.70;;;;;;;1.22;72.37;99183.31;1706814;83;21673;-61
2020/12/26 02:07:48;;;;;;;4.05;1.80;;;;;;;1.14;72.47;99180.92;1708661;84;21205;-61
2020/12/26 02:10:16;;;;;;;4.45;2.20;;;;;;;1.09;72.76;99181.62;1706850;82;21137;-61
2020/12/26 02:12:45;;;;;;;7.87;3.10;;;;;;;1.16;72.69;99190.40;1709254;83;21201;-61
2020/12/26 02:15:14;;;;;;;7.25;3.98;;;;;;;1.22;72.00;99183.31;1707122;84;21214;-61
2020/12/26 02:17:42;;;;;;;6.17;3.62;;;;;;;1.16;72.20;99181.53;1694885;84;21362;-61
2020/12/26 02:20:10;;;;;;;7.35;4.17;;;;;;;1.11;72.08;99182.72;1627819;87;21177;-62
2020/12/26 02:22:39;;;;;;;7.28;4.40;;;;;;;1.11;71.87;99185.40;1667033;86;21178;-61
2020/12/26 02:25:09;;;;;;;7.87;4.30;;;;;;;1.25;71.69;99196.27;1677655;84;21130;-61
2020/12/26 02:27:37;;;;;;;8.03;4.10;;;;;;;1.25;71.59;99196.27;1631948;88;21204;-61
2020/12/26 02:30:05;;;;;;;10.38;4.53;;;;;;;1.17;71.57;99194.70;1670297;85;21212;-62
2020/12/26 02:32:33;;;;;;;5.97;2.40;;;;;;;1.09;71.39;99191.52;1670734;86;21597;-61
2020/12/26 02:35:01;;;;;;;5.08;2.33;;;;;;;1.07;71.71;99189.05;1670696;86;21194;-62
2020/12/26 02:37:29;;;;;;;4.25;2.02;;;;;;;1.05;71.82;99195.68;1693527;84;21178;-62
2020/12/26 02:39:57;;;;;;;5.55;2.00;;;;;;;1.08;71.90;99197.91;1699680;84;21177;-62
2020/12/26 02:42:25;;;;;;;4.10;1.65;;;;;;;1.03;72.13;99198.57;1635097;88;21220;-61
2020/12/26 02:44:53;;;;;;;4.62;1.70;;;;;;;1.07;72.04;99198.94;1705426;84;21178;-62
2020/12/26 02:47:21;;;;;;;3.17;1.47;;;;;;;1.02;72.28;99203.66;1707026;84;21193;-61
2020/12/26 02:49:49;;;;;;;4.70;1.77;;;;;;;1.11;71.99;99193.44;1689096;84;21309;-61
2020/12/26 02:52:16;;;;;;;6.53;2.55;;;;;;;1.14;72.05;99199.17;1634967;88;21154;-62
2020/12/26 02:54:45;;;;;;;7.10;3.37;;;;;;;1.05;72.13;99205.06;1679353;85;21277;-62
2020/12/26 02:57:14;;;;;;;7.58;3.02;;;;;;;0.96;72.32;99200.51;1674905;83;21434;-61
2020/12/26 02:59:42;;;;;;;7.03;2.92;;;;;;;0.93;72.44;99204.45;1666031;86;21315;-61
2020/12/26 03:02:09;;;;;;;7.78;2.72;;;;;;;0.88;72.55;99205.66;1689744;84;21212;-62
2020/12/26 03:04:37;;;;;;;6.75;2.37;;;;;;;0.90;72.60;99198.73;1695482;84;21140;-61
2020/12/26 03:07:05;;;;;;;5.80;2.65;;;;;;;0.92;72.51;99204.16;1693134;84;21173;-62
2020/12/26 03:09:33;;;;;;;7.17;2.70;;;;;;;0.84;72.67;99205.80;1657478;84;21674;-61
2020/12/26 03:12:00;;;;;;;4.28;1.90;;;;;;;0.74;72.87;99197.98;1695970;84;22011;-62
2020/12/26 03:14:28;;;;;;;3.27;1.60;;;;;;;0.71;72.99;99199.22;1684030;84;21652;-62
2020/12/26 03:16:56;;;;;;;3.47;1.52;;;;;;;0.68;73.18;99202.86;1665884;86;21692;-62
2020/12/26 03:19:24;;;;;;;4.78;2.20;;;;;;;0.68;73.24;99205.02;1688821;84;21136;-62
2020/12/26 03:21:52;;;;;;;4.60;2.08;;;;;;;0.69;73.28;99215.22;1690086;84;21168;-61
2020/12/26 03:24:20;;;;;;;6.15;2.40;;;;;;;0.68;73.34;99209.55;1663860;85;21529;-61
2020/12/26 03:26:47;;;;;;;5.67;2.30;;;;;;;0.79;73.13;99212.85;1667091;86;21172;-61
2020/12/26 03:29:15;;;;;;;4.85;2.02;;;;;;;0.81;72.92;99219.65;1667456;86;21191;-62
2020/12/26 03:31:43;;;;;;;6.35;2.30;;;;;;;0.73;73.14;99221.78;1667285;86;21342;-62
2020/12/26 03:34:11;;;;;;;4.97;2.20;;;;;;;0.67;73.33;99219.48;1641915;86;21201;-62
2020/12/26 03:36:39;;;;;;;4.80;2.10;;;;;;;0.67;73.36;99224.84;1667354;86;21204;-62
2020/12/26 03:39:07;;;;;;;5.85;3.70;;;;;;;0.64;73.48;99225.80;1665482;86;21167;-62
2020/12/26 03:41:34;;;;;;;6.10;4.22;;;;;;;0.64;73.42;99217.22;1667397;86;21203;-61
2020/12/26 03:44:02;;;;;;;7.97;5.60;;;;;;;0.61;73.47;99208.28;1666664;86;21602;-61
2020/12/26 03:46:30;;;;;;;8.95;5.90;;;;;;;0.67;73.38;99207.42;1695300;84;21193;-61
2020/12/26 03:48:58;;;;;;;5.85;4.33;;;;;;;0.65;73.36;99200.63;1695321;84;21172;-62
2020/12/26 03:51:27;;;;;;;5.72;3.42;;;;;;;0.64;72.99;99198.47;1694327;84;21638;-62
2020/12/26 03:53:55;;;;;;;5.83;3.62;;;;;;;0.58;73.07;99199.88;1695204;84;21172;-61
2020/12/26 03:56:24;;;;;;;6.78;3.77;;;;;;;0.54;73.18;99197.33;1695090;84;21211;-62
2020/12/26 03:58:52;;;;;;;4.62;2.62;;;;;;;0.53;73.29;99201.06;1695200;84;21627;-62
2020/12/26 04:01:20;;;;;;;5.65;2.12;;;;;;;0.67;73.01;99197.23;1695151;84;21225;-62
2020/12/26 04:03:48;;;;;;;5.92;3.72;;;;;;;0.63;72.94;99197.36;1693371;84;21136;-62
2020/12/26 04:06:16;;;;;;;4.20;2.17;;;;;;;0.56;73.54;99197.42;1695211;84;21175;-63
2020/12/26 04:08:46;;;;;;;2.95;1.40;;;;;;;0.53;73.56;99198.39;1695329;84;21541;-62
2020/12/26 04:11:14;;;;;;;3.00;1.17;;;;;;;0.62;72.91;99200.55;1695330;84;21659;-62
2020/12/26 04:13:42;;;;;;;2.83;1.20;;;;;;;0.62;72.89;99211.27;1695384;84;21969;-62
2020/12/26 04:16:11;;;;;;;4.00;1.77;;;;;;;0.58;73.03;99214.60;1695175;84;21178;-62
2020/12/26 04:18:39;;;;;;;3.42;1.62;;;;;;;0.53;73.04;99219.81;1695553;84;21163;-62
2020/12/26 04:21:08;;;;;;;3.35;1.60;;;;;;;0.58;73.07;99222.64;1695448;84;21634;-62
2020/12/26 04:23:37;;;;;;;4.25;1.92;;;;;;;0.56;73.21;99232.77;1692961;84;21172;-62
2020/12/26 04:26:10;;;;;;;3.25;1.70;;;;;;;0.58;73.23;99234.69;1651846;86;21629;-62
2020/12/26 04:28:38;;;;;;;2.85;1.47;;;;;;;0.56;73.29;99224.73;1695609;84;21587;-62
2020/12/26 04:31:07;;;;;;;3.75;1.72;;;;;;;0.58;73.27;99227.99;1695529;84;21623;-62
2020/12/26 04:33:35;;;;;;;4.55;2.20;;;;;;;0.53;73.44;99233.20;1693024;84;21159;-62
2020/12/26 04:36:03;;;;;;;6.45;3.17;;;;;;;0.60;73.34;99235.31;1695488;84;21195;-61
2020/12/26 04:38:32;;;;;;;5.60;3.20;;;;;;;0.68;73.18;99247.88;1695227;84;21175;-62
2020/12/26 04:41:00;;;;;;;7.05;3.85;;;;;;;0.64;73.27;99253.92;1667154;84;21145;-62
2020/12/26 04:43:28;;;;;;;7.72;5.67;;;;;;;0.62;73.46;99258.15;1712291;84;21589;-62
2020/12/26 04:45:57;;;;;;;14.43;10.78;;;;;;;0.71;73.29;99255.48;1710643;84;21161;-61
2020/12/26 04:48:26;;;;;;;15.78;12.95;;;;;;;0.80;72.93;99250.67;1702670;84;21404;-62
2020/12/26 04:51:02;;;;;;;14.13;11.65;;;;;;;0.73;73.01;99248.57;1680711;84;21133;-62
2020/12/26 04:53:34;;;;;;;13.10;10.85;;;;;;;0.63;73.03;99250.42;1701347;84;21593;-61
2020/12/26 04:56:02;;;;;;;13.05;10.23;;;;;;;0.63;72.91;99257.62;1682818;85;21328;-61
2020/12/26 04:58:31;;;;;;;12.85;10.60;;;;;;;0.60;72.73;99259.41;1682536;84;21174;-62
2020/12/26 05:01:00;;;;;;;11.18;8.98;;;;;;;0.44;73.07;99258.91;1699490;84;21618;-62
2020/12/26 05:03:28;;;;;;;11.35;9.80;;;;;;;0.34;73.40;99263.11;1635120;88;21184;-61
2020/12/26 05:06:05;;;;;;;12.73;10.82;;;;;;;0.31;73.34;99267.56;1704071;84;21239;-62
2020/12/26 05:08:34;;;;;;;9.45;8.23;;;;;;;0.22;73.57;99264.83;1707267;84;21154;-61
2020/12/26 05:11:02;;;;;;;12.70;9.05;;;;;;;0.17;73.68;99264.68;1707152;83;21207;-62
2020/12/26 05:13:30;;;;;;;14.18;10.48;;;;;;;0.09;73.88;99261.73;1694354;84;21593;-62
2020/12/26 05:15:58;;;;;;;16.42;13.45;;;;;;;0.15;73.76;99263.55;1688013;84;21640;-62
2020/12/26 05:18:25;;;;;;;22.50;15.93;;;;;;;0.09;74.02;99267.61;1707053;84;21901;-62
2020/12/26 05:20:56;;;;;;;25.35;13.78;;;;;;;-0.03;74.37;99262.11;1699119;84;21588;-62
2020/12/26 05:23:23;;;;;;;21.93;11.30;;;;;;;-0.05;74.44;99266.87;1689395;84;21597;-62
2020/12/26 05:25:51;;;;;;;20.50;10.32;;;;;;;-0.02;74.34;99267.77;1688785;84;21187;-62
2020/12/26 05:28:27;;;;;;;15.70;7.50;;;;;;;-0.11;74.54;99271.75;1680554;84;21613;-63
2020/12/26 05:30:53;;;;;;;12.10;5.60;;;;;;;-0.17;74.72;99277.94;1699651;84;21169;-63
2020/12/26 05:33:20;;;;;;;11.70;5.45;;;;;;;-0.14;74.71;99277.50;1635134;88;21233;-64
2020/12/26 05:35:50;;;;;;;10.55;4.47;;;;;;;-0.23;74.99;99280.13;1670936;85;21225;-63
2020/12/26 05:38:25;;;;;;;11.05;4.45;;;;;;;-0.36;75.39;99283.70;1684389;84;21150;-63
2020/12/26 05:40:57;;;;;;;10.68;4.87;;;;;;;-0.38;75.60;99281.73;1705784;84;21292;-63
2020/12/26 05:43:27;;;;;;;13.85;6.25;;;;;;;-0.43;75.88;99290.93;1697918;84;21162;-64
2020/12/26 05:45:55;;;;;;;17.07;8.83;;;;;;;-0.46;76.04;99288.66;1635143;88;21201;-64
2020/12/26 05:48:27;;;;;;;21.10;11.73;;;;;;;-0.52;76.43;99300.20;1679581;84;21161;-64
2020/12/26 05:50:58;;;;;;;26.17;12.70;;;;;;;-0.53;76.44;99306.06;1696975;84;21165;-62
2020/12/26 05:53:27;;;;;;;21.27;10.85;;;;;;;-0.57;76.63;99298.16;1696116;84;21612;-63
2020/12/26 05:55:55;;;;;;;16.90;8.78;;;;;;;-0.54;76.69;99307.63;1687367;84;21633;-63
2020/12/26 05:58:25;;;;;;;16.25;8.83;;;;;;;-0.59;76.81;99300.74;1644597;86;21196;-62
2020/12/26 06:00:53;;;;;;;14.28;7.90;;;;;;;-0.59;76.84;99302.91;1697667;84;21602;-63
2020/12/26 06:03:28;;;;;;;12.73;8.08;;;;;;;-0.60;76.92;99306.59;1693232;84;21606;-61
2020/12/26 06:05:59;;;;;;;14.18;8.65;;;;;;;-0.59;76.94;99310.09;1697955;84;21193;-62
2020/12/26 06:08:28;;;;;;;14.87;9.83;;;;;;;-0.64;77.05;99312.06;1697863;84;21146;-64
2020/12/26 06:10:58;;;;;;;14.20;10.28;;;;;;;-0.66;77.10;99302.10;1695306;84;21143;-62
2020/12/26 06:13:28;;;;;;;17.75;11.03;;;;;;;-0.66;77.09;99304.78;1697782;84;21175;-62
2020/12/26 06:16:10;;;;;;;16.87;10.38;;;;;;;-0.66;77.10;99310.13;1697971;84;21171;-62
2020/12/26 06:18:44;;;;;;;17.42;11.63;;;;;;;-0.64;77.08;99316.06;1697815;84;21175;-62
2020/12/26 06:21:12;;;;;;;14.83;8.70;;;;;;;-0.66;77.02;99317.31;1693702;84;21175;-62
2020/12/26 06:23:40;;;;;;;13.48;7.75;;;;;;;-0.66;76.93;99326.67;1697422;84;21313;-62
2020/12/26 06:26:08;;;;;;;14.98;8.83;;;;;;;-0.68;76.87;99321.55;1697888;84;21200;-62
2020/12/26 06:28:36;;;;;;;12.18;7.45;;;;;;;-0.70;76.89;99326.78;1697674;84;21187;-61
2020/12/26 06:31:08;;;;;;;12.93;7.87;;;;;;;-0.68;76.88;99334.09;1697548;84;21163;-62
2020/12/26 06:33:48;;;;;;;13.90;7.95;;;;;;;-0.72;76.95;99344.38;1687984;84;21313;-62
2020/12/26 06:36:19;;;;;;;12.63;7.58;;;;;;;-0.68;76.92;99350.95;1697859;84;21346;-63
2020/12/26 06:38:46;;;;;;;11.57;6.53;;;;;;;-0.67;76.95;99355.25;1697980;84;21226;-62
2020/12/26 06:41:16;;;;;;;7.97;3.92;;;;;;;-0.69;77.04;99360.00;1697467;84;21641;-62
2020/12/26 06:43:56;;;;;;;8.75;4.00;;;;;;;-0.68;77.26;99352.80;1696753;84;21213;-63
2020/12/26 06:46:29;;;;;;;6.80;3.10;;;;;;;-0.71;77.49;99354.02;1697635;84;21323;-63
2020/12/26 06:48:58;;;;;;;7.15;3.02;;;;;;;-0.70;77.75;99359.69;1697838;84;21167;-62
2020/12/26 06:51:41;;;;;;;5.55;2.40;;;;;;;-0.72;78.08;99360.42;1697691;84;21196;-63
2020/12/26 06:54:12;;;;;;;5.10;2.22;;;;;;;-0.63;78.17;99367.69;1697993;84;21159;-62
2020/12/26 06:56:45;;;;;;;3.20;1.92;;;;;;;-0.59;78.42;99362.23;1697960;84;21184;-63
2020/12/26 06:59:14;;;;;;;3.45;1.70;;;;;;;-0.40;78.39;99356.53;1688456;84;21157;-63
2020/12/26 07:01:45;;;;;;;3.37;1.80;;;;;;;-0.34;78.56;99371.22;1637142;87;21574;-63
2020/12/26 07:04:20;;;;;;;6.47;1.90;;;;;;;-0.28;78.83;99364.20;1691009;83;21279;-63
2020/12/26 07:06:53;;;;;;;3.45;1.20;;;;;;;-0.15;78.83;99358.31;1644301;87;21193;-63
2020/12/26 07:09:42;;;;;;;3.15;1.50;;;;;;;-0.02;78.78;99358.24;1677469;84;21164;-63
2020/12/26 07:12:10;;;;;;;4.08;1.60;;;;;;;0.09;78.57;99363.45;1645773;86;21659;-62
2020/12/26 07:14:42;;;;;;;3.90;1.80;;;;;;;0.20;78.40;99368.13;1713734;83;21315;-63
2020/12/26 07:17:21;;;;;;;4.33;1.27;;;;;;;0.40;77.89;99368.83;1715316;83;21134;-63
2020/12/26 07:19:51;;;;;;;4.35;1.65;;;;;;;0.50;77.64;99377.20;1708917;83;21624;-63
2020/12/26 07:22:24;;;;;;;5.05;2.00;;;;;;;0.48;77.70;99372.59;1716230;83;21141;-62
2020/12/26 07:25:07;;;;;;;5.53;1.92;;;;;;;0.46;77.86;99373.31;1719340;83;21583;-63
2020/12/26 07:27:39;;;;;;;3.47;1.52;;;;;;;0.60;77.61;99370.06;1699134;83;21640;-63
2020/12/26 07:30:15;;;;;;;3.98;1.90;;;;;;;0.73;77.25;99376.66;1691742;83;21751;-63
2020/12/26 07:33:00;;;;;;;4.17;2.00;;;;;;;0.69;77.34;99386.67;1645113;87;21509;-63
2020/12/26 07:35:36;;;;;;;3.30;2.15;;;;;;;0.64;77.58;99385.19;1678036;85;21195;-62
2020/12/26 07:38:10;;;;;;;6.00;2.20;;;;;;;0.76;77.50;99398.99;1657139;86;21183;-63
2020/12/26 07:40:41;;;;;;;4.60;1.90;;;;;;;0.84;77.27;99394.72;1670678;86;21227;-63
2020/12/26 07:43:14;;;;;;;4.80;2.08;;;;;;;0.84;77.50;99401.94;1672449;86;21197;-62
2020/12/26 07:45:44;;;;;;;3.60;1.98;;;;;;;0.81;77.61;99397.84;1667432;86;21608;-63
2020/12/26 07:48:12;;;;;;;4.12;2.27;;;;;;;0.82;77.72;99390.59;1688929;85;21233;-63
2020/12/26 07:50:41;;;;;;;3.72;2.02;;;;;;;1.04;77.37;99397.23;1643773;87;21659;-62
2020/12/26 07:53:11;;;;;;;2.70;1.60;;;;;;;1.11;77.08;99402.02;1675796;85;21190;-63
2020/12/26 07:55:39;;;;;;;3.40;2.20;;;;;;;1.04;77.21;99405.28;1677702;85;21195;-64
2020/12/26 07:58:12;;;;;;;3.37;1.80;;;;;;;0.97;77.44;99400.48;1677185;85;21155;-63
2020/12/26 08:00:43;;;;;;;3.55;1.75;;;;;;;1.00;77.50;99410.25;1706114;84;21141;-63
2020/12/26 08:03:12;;;;;;;5.80;2.30;;;;;;;1.11;77.20;99422.13;1694170;84;21263;-62
2020/12/26 08:05:46;;;;;;;2.98;1.60;;;;;;;1.11;77.34;99418.11;1653948;87;21676;-62
2020/12/26 08:08:16;;;;;;;3.20;1.80;;;;;;;1.03;77.66;99422.94;1644258;86;21145;-61
2020/12/26 08:12:59;;;;;;;4.12;2.35;;;;;;;1.07;77.86;99418.75;1803858;78;23444;-61
2020/12/26 08:15:29;;;;;;;6.92;2.20;;;;;;;0.96;78.07;99435.02;1761508;80;21676;-61
2020/12/26 08:17:59;;;;;;;3.55;1.87;;;;;;;0.91;78.38;99432.19;1782634;80;21185;-61
2020/12/26 08:20:31;;;;;;;3.15;1.80;;;;;;;0.87;78.60;99439.02;1778109;80;21153;-61
2020/12/26 08:22:59;;;;;;;5.15;3.12;;;;;;;1.03;78.36;99433.11;1773879;80;21160;-60
2020/12/26 08:25:28;;;;;;;4.55;1.90;;;;;;;1.11;78.23;99436.05;1769235;80;21214;-61
2020/12/26 08:27:56;;;;;;;5.45;3.35;;;;;;;1.02;78.41;99422.11;1762206;80;21161;-61
2020/12/26 08:30:30;;;;;;;7.80;5.20;;;;;;;1.04;78.62;99431.26;1762353;80;21210;-62
2020/12/26 08:33:09;;;;;;;10.03;5.80;;;;;;;1.07;78.67;99431.64;1770840;80;21169;-61
2020/12/26 08:35:57;;;;;;;5.22;2.90;;;;;;;1.25;78.36;99434.91;1770320;80;21206;-62
2020/12/26 08:38:44;;;;;;;4.42;2.80;;;;;;;1.33;78.15;99435.98;1748182;81;21181;-61
2020/12/26 08:41:12;;;;;;;5.65;3.12;;;;;;;1.28;78.33;99426.42;1761135;80;21145;-61
2020/12/26 08:43:41;;;;;;;5.00;3.20;;;;;;;1.27;78.50;99428.31;1759406;80;21117;-61
2020/12/26 08:46:14;;;;;;;9.28;5.45;;;;;;;1.34;78.36;99407.62;1770459;80;21141;-60
2020/12/26 08:48:42;;;;;;;5.28;3.37;;;;;;;1.55;77.85;99392.14;1768771;80;21537;-61
2020/12/26 08:51:22;;;;;;;5.92;3.17;;;;;;;1.57;77.71;99391.39;1761371;80;21203;-61
2020/12/26 08:53:52;;;;;;;4.70;2.90;;;;;;;1.58;77.79;99376.94;1762363;80;21141;-62
2020/12/26 08:56:37;;;;;;;5.92;2.65;;;;;;;1.58;77.79;99362.19;1762571;80;21184;-60
2020/12/26 08:59:05;;;;;;;7.10;4.05;;;;;;;1.72;77.59;99356.97;1772160;80;21157;-60
2020/12/26 09:01:33;;;;;;;5.25;3.27;;;;;;;1.86;77.27;99355.26;1764966;80;21157;-61
2020/12/26 09:04:01;;;;;;;5.33;3.30;;;;;;;1.89;77.17;99361.52;1779049;80;21113;-61
2020/12/26 09:06:31;;;;;;;6.05;3.10;;;;;;;1.92;77.04;99370.45;1772917;80;21189;-61
2020/12/26 09:09:00;;;;;;;5.80;3.33;;;;;;;1.97;76.83;99377.33;1773310;80;21133;-62
2020/12/26 09:11:30;;;;;;;5.12;2.90;;;;;;;2.09;76.34;99380.60;1780897;80;21336;-61
2020/12/26 09:13:58;;;;;;;5.95;2.95;;;;;;;2.19;75.90;99384.91;1765247;80;21529;-60
2020/12/26 09:16:28;;;;;;;6.35;3.50;;;;;;;2.10;75.97;99394.30;1773522;81;21318;-61
2020/12/26 09:18:59;;;;;;;6.20;3.08;;;;;;;2.00;76.27;99394.84;1749009;80;21157;-60
2020/12/26 09:21:28;;;;;;;6.47;3.27;;;;;;;1.94;76.52;99403.80;1755383;80;21580;-61
2020/12/26 09:23:57;;;;;;;5.50;3.12;;;;;;;1.98;76.37;99415.19;1679382;84;21301;-59
2020/12/26 09:26:31;;;;;;;5.25;2.83;;;;;;;1.98;76.36;99427.27;1751761;81;21102;-60
2020/12/26 09:29:01;;;;;;;6.17;3.60;;;;;;;1.84;76.69;99435.16;1755369;81;21141;-60
2020/12/26 09:31:36;;;;;;;6.60;3.50;;;;;;;1.71;77.04;99444.70;1746774;81;21600;-60
2020/12/26 09:34:24;;;;;;;5.20;3.37;;;;;;;1.78;76.94;99451.34;1740486;82;21656;-60
2020/12/26 09:37:04;;;;;;;;;;;;;;;1.76;77.20;99451.58;1745569;81;21173;-59
2020/12/26 09:39:33;;;;;;;5.35;3.27;;;;;;;1.62;77.60;99446.56;1752791;81;20267;-60
2020/12/26 09:42:00;;;;;;;6.97;3.95;;;;;;;1.61;77.88;99453.78;1766518;80;21169;-62
2020/12/26 09:44:29;;;;;;;6.08;3.75;;;;;;;1.71;77.66;99449.24;1764834;80;21173;-60
2020/12/26 09:47:02;;;;;;;7.47;3.95;;;;;;;1.66;77.90;99447.77;1757342;81;21158;-60
2020/12/26 09:49:29;;;;;;;6.60;3.50;;;;;;;1.63;78.30;99450.34;1756296;80;21214;-60
2020/12/26 09:51:57;;;;;;;8.05;3.20;;;;;;;1.78;78.09;99462.08;1764906;81;21172;-60
2020/12/26 09:54:26;;;;;;;6.65;3.45;;;;;;;1.84;77.75;99459.87;1747158;80;21967;-61
2020/12/26 09:56:55;;;;;;;6.60;3.35;;;;;;;1.78;77.92;99459.39;1762337;81;21687;-61
2020/12/26 09:59:23;;;;;;;5.28;2.90;;;;;;;1.73;78.08;99457.91;1773231;80;21170;-60
2020/12/26 10:01:51;;;;;;;6.53;3.55;;;;;;;1.80;77.87;99456.81;1769738;81;21161;-61
2020/12/26 10:04:19;;;;;;;5.00;3.45;;;;;;;1.87;77.69;99455.39;1745816;81;21316;-59
2020/12/26 10:06:50;;;;;;;5.58;3.42;;;;;;;1.79;77.85;99448.97;1707845;81;21295;-60
2020/12/26 10:09:17;;;;;;;4.78;3.05;;;;;;;1.74;78.01;99444.77;1766110;81;21181;-61
2020/12/26 10:11:46;;;;;;;6.37;3.80;;;;;;;1.69;77.83;99423.98;1742364;81;21169;-59
2020/12/26 10:14:14;;;;;;;5.08;3.45;;;;;;;1.89;77.67;99460.83;1727671;81;21185;-60
2020/12/26 10:16:42;;;;;;;5.75;3.08;;;;;;;1.83;77.94;99460.91;1747826;81;21248;-60
2020/12/26 10:19:10;;;;;;;6.47;3.67;;;;;;;1.83;78.18;99456.88;1766606;79;21605;-60
2020/12/26 10:21:38;;;;;;;5.22;2.98;;;;;;;1.91;78.03;99457.39;1751599;81;21677;-61
2020/12/26 10:24:06;;;;;;;5.53;3.90;;;;;;;2.09;77.65;99459.81;1770434;81;21177;-61
2020/12/26 10:26:34;;;;;;;5.05;3.42;;;;;;;2.08;77.70;99463.53;1735664;81;21141;-61
2020/12/26 10:29:02;;;;;;;10.63;3.75;;;;;;;2.06;77.67;99472.31;1735318;81;21267;-61
2020/12/26 10:31:31;;;;;;;5.78;3.55;;;;;;;2.09;77.52;99475.37;1751654;81;21164;-60
2020/12/26 10:34:00;;;;;;;7.10;4.03;;;;;;;2.22;77.23;99470.39;1740977;81;21116;-60
2020/12/26 10:36:28;;;;;;;11.53;6.55;;;;;;;2.17;77.26;99468.89;1766382;81;21264;-60
2020/12/26 10:38:56;;;;;;;12.68;5.60;;;;;;;2.13;77.38;99479.77;1764655;81;21717;-60
2020/12/26 10:41:24;;;;;;;9.55;5.75;;;;;;;2.08;77.33;99480.98;1740028;82;21144;-60
2020/12/26 10:43:52;;;;;;;8.00;5.50;;;;;;;2.19;77.18;99482.93;1745569;81;21682;-61
2020/12/26 10:46:20;;;;;;;9.43;4.95;;;;;;;2.18;77.22;99470.02;1738089;81;21177;-61
2020/12/26 10:48:49;;;;;;;8.10;4.80;;;;;;;2.11;77.37;99473.30;1770457;81;21186;-61
2020/12/26 10:51:17;;;;;;;6.55;4.12;;;;;;;2.11;77.46;99473.82;1744572;81;21348;-61
2020/12/26 10:53:45;;;;;;;9.50;4.15;;;;;;;2.22;77.16;99471.73;1750925;81;21526;-60
2020/12/26 10:56:14;;;;;;;6.47;3.83;;;;;;;2.18;77.34;99472.70;1757517;81;21226;-61
2020/12/26 10:58:42;;;;;;;7.87;4.20;;;;;;;2.12;77.45;99475.47;1759977;81;21616;-61
2020/12/26 11:01:10;;;;;;;8.10;5.10;;;;;;;2.08;77.67;99472.93;1750604;81;21174;-61
2020/12/26 11:03:38;;;;;;;9.48;5.83;;;;;;;2.22;77.41;99482.48;1752685;81;21149;-61
2020/12/26 11:06:06;;;;;;;8.00;4.65;;;;;;;2.23;77.39;99486.27;1770608;81;21778;-60
2020/12/26 11:08:34;;;;;;;7.03;4.62;;;;;;;2.20;77.55;99493.95;1742955;81;21169;-60
2020/12/26 11:11:02;;;;;;;6.03;3.90;;;;;;;2.14;77.65;99484.94;1763779;81;21190;-60
2020/12/26 11:13:30;;;;;;;6.72;3.77;;;;;;;2.23;77.43;99484.13;1764095;81;21700;-60
2020/12/26 11:15:57;;;;;;;6.85;4.62;;;;;;;2.25;77.30;99478.83;1746800;82;21158;-60
2020/12/26 11:18:25;;;;;;;8.03;4.28;;;;;;;2.18;77.49;99488.00;1747002;82;21197;-60
2020/12/26 11:20:53;;;;;;;5.95;3.42;;;;;;;2.14;77.70;99482.25;1758678;81;21190;-60
2020/12/26 11:23:21;;;;;;;6.65;3.90;;;;;;;2.22;77.39;99489.20;1772290;81;21732;-60
2020/12/26 11:25:49;;;;;;;6.92;4.55;;;;;;;2.31;77.12;99491.34;1771201;81;21216;-60
2020/12/26 11:28:18;;;;;;;8.08;4.65;;;;;;;2.24;77.20;99493.81;1767974;81;21174;-60
2020/12/26 11:30:46;;;;;;;7.67;4.53;;;;;;;2.12;77.45;99494.27;1751190;81;21097;-60
2020/12/26 11:33:14;;;;;;;7.33;4.03;;;;;;;2.09;77.64;99481.30;1757351;81;21287;-60
2020/12/26 11:35:42;;;;;;;8.90;4.80;;;;;;;2.21;77.36;99478.14;1772617;79;21122;-60
2020/12/26 11:38:10;;;;;;;9.13;4.83;;;;;;;2.24;77.30;99486.58;1777819;81;21703;-60
2020/12/26 11:40:38;;;;;;;8.08;5.45;;;;;;;2.18;77.58;99488.00;1775210;80;21174;-60
2020/12/26 11:43:05;;;;;;;7.03;4.58;;;;;;;2.11;77.80;99489.41;1747325;80;21189;-60
2020/12/26 11:45:34;;;;;;;10.08;5.53;;;;;;;2.19;77.69;99493.67;1755148;80;21137;-60
2020/12/26 11:48:02;;;;;;;9.78;6.25;;;;;;;2.19;77.67;99490.47;1764906;81;21609;-60
2020/12/26 11:50:30;;;;;;;13.22;8.93;;;;;;;2.07;77.91;99486.88;1743095;81;21186;-61
2020/12/26 11:52:58;;;;;;;8.00;5.05;;;;;;;1.80;78.31;99440.70;1762812;81;21176;-61